createdAt,value
2019-02-03T00:00:36.728Z,89.00
2019-02-03T00:03:06.592Z,88.97
2019-02-03T00:05:36.746Z,89.32
2019-02-03T00:08:06.704Z,89.03
2019-02-03T00:10:36.436Z,88.67
2019-02-03T00:13:06.393Z,88.68
2019-02-03T00:15:36.211Z,88.53
2019-02-03T00:18:06.308Z,87.82
2019-02-03T00:20:36.127Z,87.69
2019-02-03T00:23:05.900Z,87.41
2019-02-03T00:25:35.877Z,87.30
2019-02-03T00:28:05.805Z,87.36
2019-02-03T00:30:36.012Z,87.54
2019-02-03T00:33:05.892Z,87.82
2019-02-03T00:35:35.659Z,87.63
2019-02-03T00:38:05.639Z,87.63
2019-02-03T00:40:36.774Z,87.92
2019-02-03T00:43:06.897Z,87.99
2019-02-03T00:45:37.074Z,88.21
2019-02-03T00:48:07.161Z,88.35
2019-02-03T00:50:37.036Z,88.45
2019-02-03T00:53:07.204Z,88.54
2019-02-03T00:55:36.893Z,88.53
2019-02-03T00:58:06.781Z,88.74
2019-02-03T01:00:36.782Z,88.72
2019-02-03T01:03:06.883Z,88.54
2019-02-03T01:05:36.993Z,88.41
2019-02-03T01:08:07.754Z,88.42
2019-02-03T01:10:37.565Z,88.44
2019-02-03T01:13:07.366Z,88.74
2019-02-03T01:15:37.186Z,89.13
2019-02-03T01:18:07.508Z,89.76
2019-02-03T01:20:37.301Z,89.91
2019-02-03T01:23:07.099Z,89.92
2019-02-03T01:25:36.963Z,89.72
2019-02-03T01:28:07.012Z,89.84
2019-02-03T01:30:36.840Z,89.82
2019-02-03T01:33:06.714Z,89.81
2019-02-03T01:35:36.939Z,88.04
2019-02-03T01:38:06.832Z,87.40
2019-02-03T01:40:36.612Z,86.93
2019-02-03T01:43:06.442Z,87.07
2019-02-03T01:45:36.224Z,87.50
2019-02-03T01:48:06.199Z,87.59
2019-02-03T01:50:35.910Z,87.65
2019-02-03T01:53:06.491Z,87.50
2019-02-03T01:55:36.266Z,87.57
2019-02-03T01:58:06.247Z,87.79
2019-02-03T02:00:36.191Z,87.81
2019-02-03T02:03:06.055Z,87.45
2019-02-03T02:05:35.974Z,87.49
2019-02-03T02:08:05.717Z,87.53
2019-02-03T02:10:35.527Z,88.06
2019-02-03T02:13:05.401Z,88.37
2019-02-03T02:15:35.413Z,88.53
2019-02-03T02:18:05.634Z,88.87
2019-02-03T02:20:35.618Z,88.93
2019-02-03T02:23:05.679Z,87.82
2019-02-03T02:25:35.434Z,88.34
2019-02-03T02:28:05.901Z,88.76
2019-02-03T02:30:35.721Z,89.00
2019-02-03T02:33:05.753Z,89.12
2019-02-03T02:35:35.566Z,89.20
2019-02-03T02:38:07.377Z,88.86
2019-02-03T02:40:37.481Z,88.45
2019-02-03T02:43:07.318Z,87.81
2019-02-03T02:45:36.968Z,88.01
2019-02-03T02:48:07.017Z,88.22
2019-02-03T02:50:41.077Z,88.18
2019-02-03T02:53:10.841Z,88.44
2019-02-03T02:55:40.558Z,88.50
2019-02-03T02:58:10.205Z,88.57
2019-02-03T03:00:39.992Z,87.60
2019-02-03T03:03:09.849Z,87.35
2019-02-03T03:05:39.571Z,87.88
2019-02-03T03:08:18.090Z,86.98
2019-02-03T03:10:40.996Z,87.57
2019-02-03T03:13:10.727Z,88.00
2019-02-03T03:15:40.772Z,88.24
2019-02-03T03:18:10.622Z,87.81
2019-02-03T03:20:40.813Z,88.18
2019-02-03T03:23:10.528Z,88.26
2019-02-03T03:25:40.369Z,87.52
2019-02-03T03:28:10.146Z,87.97
2019-02-03T03:30:39.790Z,88.44
2019-02-03T03:33:09.999Z,88.85
2019-02-03T03:35:39.998Z,88.94
2019-02-03T03:38:09.744Z,88.75
2019-02-03T03:40:39.587Z,87.88
2019-02-03T03:43:09.716Z,88.13
2019-02-03T03:45:39.419Z,88.44
2019-02-03T03:48:09.104Z,88.48
2019-02-03T03:50:38.788Z,88.74
2019-02-03T03:53:08.501Z,88.60
2019-02-03T03:55:38.265Z,88.73
2019-02-03T03:58:08.012Z,89.09
2019-02-03T04:00:37.982Z,88.64
2019-02-03T04:03:07.784Z,88.79
2019-02-03T04:05:37.613Z,88.73
2019-02-03T04:08:07.420Z,88.94
2019-02-03T04:10:37.394Z,88.96
2019-02-03T04:13:07.688Z,89.16
2019-02-03T04:15:37.508Z,88.99
2019-02-03T04:18:07.334Z,89.21
2019-02-03T04:20:37.106Z,89.23
2019-02-03T04:23:07.638Z,89.24
2019-02-03T04:25:37.311Z,89.70
2019-02-03T04:28:07.131Z,89.80
2019-02-03T04:30:36.817Z,90.09
2019-02-03T04:33:06.720Z,90.10
2019-02-03T04:35:36.490Z,90.28
2019-02-03T04:38:06.270Z,90.38
2019-02-03T04:40:36.587Z,90.51
2019-02-03T04:43:06.388Z,90.89
2019-02-03T04:45:36.158Z,90.69
2019-02-03T04:48:06.046Z,90.93
2019-02-03T04:50:35.733Z,91.33
2019-02-03T04:53:05.840Z,91.76
2019-02-03T04:55:35.600Z,92.04
2019-02-03T04:58:05.667Z,92.11
2019-02-03T05:00:35.394Z,92.06
2019-02-03T05:03:05.168Z,92.00
2019-02-03T05:05:34.831Z,91.81
2019-02-03T05:08:04.696Z,91.50
2019-02-03T05:10:34.352Z,91.52
2019-02-03T05:13:04.182Z,91.62
2019-02-03T05:15:34.004Z,91.69
2019-02-03T05:18:03.824Z,91.40
2019-02-03T05:20:33.488Z,91.30
2019-02-03T05:23:03.224Z,91.33
2019-02-03T05:25:32.958Z,91.37
2019-02-03T05:28:02.735Z,91.39
2019-02-03T05:30:35.207Z,91.38
2019-02-03T05:33:05.239Z,91.23
2019-02-03T05:35:35.056Z,91.03
2019-02-03T05:38:04.846Z,90.92
2019-02-03T05:40:34.548Z,90.86
2019-02-03T05:43:04.530Z,90.75
2019-02-03T05:45:34.328Z,90.60
2019-02-03T05:48:04.076Z,90.41
2019-02-03T05:50:33.805Z,90.15
2019-02-03T05:53:03.639Z,89.92
2019-02-03T05:55:33.399Z,89.88
2019-02-03T05:58:04.247Z,89.80
2019-02-03T06:00:35.773Z,89.87
2019-02-03T06:03:06.105Z,89.92
2019-02-03T06:05:35.826Z,89.97
2019-02-03T06:08:05.818Z,90.01
2019-02-03T06:10:35.686Z,89.93
2019-02-03T06:13:05.593Z,89.65
2019-02-03T06:15:35.554Z,89.66
2019-02-03T06:18:05.552Z,89.66
2019-02-03T06:20:35.325Z,89.62
2019-02-03T06:23:05.211Z,89.69
2019-02-03T06:25:35.292Z,89.73
2019-02-03T06:28:05.345Z,89.73
2019-02-03T06:30:57.400Z,89.84
2019-02-03T06:33:27.434Z,89.99
2019-02-03T06:35:57.272Z,89.85
2019-02-03T06:38:27.039Z,89.70
2019-02-03T06:40:56.690Z,89.70
2019-02-03T06:43:26.378Z,88.91
2019-02-03T06:45:57.789Z,88.86
2019-02-03T06:48:28.544Z,88.96
2019-02-03T06:50:58.211Z,88.95
2019-02-03T06:53:27.961Z,89.19
2019-02-03T06:55:57.639Z,89.54
2019-02-03T06:58:27.412Z,89.63
2019-02-03T07:00:57.350Z,89.75
2019-02-03T07:03:27.013Z,89.64
2019-02-03T07:05:56.700Z,89.73
2019-02-03T07:08:26.381Z,89.96
2019-02-03T07:10:56.020Z,89.76
2019-02-03T07:13:25.838Z,89.85
2019-02-03T07:15:55.485Z,89.90
2019-02-03T07:18:25.200Z,89.64
2019-02-03T07:20:54.872Z,89.71
2019-02-03T07:23:24.590Z,89.69
2019-02-03T07:25:54.410Z,89.93
2019-02-03T07:28:24.335Z,90.07
2019-02-03T07:30:54.193Z,89.85
2019-02-03T07:33:24.002Z,89.66
2019-02-03T07:35:53.799Z,89.57
2019-02-03T07:38:23.486Z,89.72
2019-02-03T07:40:53.743Z,89.67
2019-02-03T07:43:23.558Z,89.75
2019-02-03T07:45:53.360Z,89.32
2019-02-03T07:48:23.074Z,89.24
2019-02-03T07:50:52.934Z,89.16
2019-02-03T07:53:22.700Z,89.14
2019-02-03T07:55:52.482Z,89.17
2019-02-03T07:58:22.205Z,89.25
2019-02-03T08:00:52.106Z,89.18
2019-02-03T08:03:21.870Z,89.02
2019-02-03T08:05:51.578Z,88.80
2019-02-03T08:08:21.586Z,88.58
2019-02-03T08:10:51.379Z,88.23
2019-02-03T08:13:21.092Z,88.39
2019-02-03T08:15:50.957Z,88.29
2019-02-03T08:18:20.696Z,88.47
2019-02-03T08:20:50.479Z,88.06
2019-02-03T08:23:20.124Z,87.81
2019-02-03T08:25:49.817Z,87.25
2019-02-03T08:28:19.497Z,86.73
2019-02-03T08:30:49.186Z,86.09
2019-02-03T08:33:18.918Z,85.91
2019-02-03T08:35:49.127Z,85.91
2019-02-03T08:38:18.777Z,85.52
2019-02-03T08:40:48.546Z,85.28
2019-02-03T08:43:18.307Z,85.07
2019-02-03T08:45:48.990Z,84.72
2019-02-03T08:48:18.676Z,84.27
2019-02-03T08:50:48.550Z,85.88
2019-02-03T08:53:18.399Z,84.63
2019-02-03T08:55:48.214Z,84.87
2019-02-03T08:58:18.151Z,84.84
2019-02-03T09:00:47.826Z,85.04
2019-02-03T09:03:17.715Z,85.09
2019-02-03T09:05:47.554Z,85.35
2019-02-03T09:08:17.410Z,85.26
2019-02-03T09:10:48.830Z,84.17
2019-02-03T09:13:18.736Z,84.19
2019-02-03T09:15:51.849Z,83.51
2019-02-03T09:18:20.350Z,83.51
2019-02-03T09:20:50.228Z,83.32
2019-02-03T09:23:20.020Z,82.71
2019-02-03T09:25:49.846Z,82.52
2019-02-03T09:28:19.799Z,82.67
2019-02-03T09:30:49.560Z,82.83
2019-02-03T09:33:19.327Z,82.16
2019-02-03T09:35:49.296Z,82.53
2019-02-03T09:38:19.618Z,81.69
2019-02-03T09:40:59.683Z,80.13
2019-02-03T09:43:20.957Z,80.01
2019-02-03T09:45:50.691Z,79.75
2019-02-03T09:48:20.391Z,78.99
2019-02-03T09:50:50.129Z,79.17
2019-02-03T09:53:19.867Z,79.25
2019-02-03T09:55:49.885Z,78.21
2019-02-03T09:58:19.734Z,77.86
2019-02-03T10:00:49.545Z,77.79
2019-02-03T10:03:19.311Z,78.04
2019-02-03T10:05:58.149Z,77.15
2019-02-03T10:08:40.085Z,77.25
2019-02-03T10:11:11.297Z,77.08
2019-02-03T10:13:31.222Z,76.54
2019-02-03T10:16:00.878Z,76.62
2019-02-03T10:18:30.625Z,77.25
2019-02-03T10:21:00.750Z,77.70
2019-02-03T10:23:30.542Z,76.67
2019-02-03T10:26:00.346Z,76.32
2019-02-03T10:28:30.145Z,76.62
2019-02-03T10:30:59.843Z,76.39
2019-02-03T10:33:29.956Z,75.49
2019-02-03T10:35:59.934Z,75.01
2019-02-03T10:38:29.775Z,74.83
2019-02-03T10:40:59.561Z,75.27
2019-02-03T10:43:29.313Z,75.70
2019-02-03T10:45:59.115Z,75.01
2019-02-03T10:48:28.814Z,74.77
2019-02-03T10:50:58.567Z,73.90
2019-02-03T10:53:28.366Z,74.16
2019-02-03T10:55:58.204Z,73.83
2019-02-03T10:58:27.978Z,74.18
2019-02-03T11:00:58.519Z,74.51
2019-02-03T11:03:28.319Z,74.52
2019-02-03T11:05:59.438Z,74.19
2019-02-03T11:08:29.585Z,74.13
2019-02-03T11:10:59.366Z,73.97
2019-02-03T11:13:29.306Z,73.73
2019-02-03T11:15:59.585Z,73.99
2019-02-03T11:18:29.324Z,74.21
2019-02-03T11:20:59.228Z,74.05
2019-02-03T11:23:29.103Z,73.54
2019-02-03T11:26:00.158Z,73.92
2019-02-03T11:28:30.299Z,73.56
2019-02-03T11:31:00.508Z,73.67
2019-02-03T11:33:30.372Z,74.41
2019-02-03T11:36:00.089Z,73.76
2019-02-03T11:38:29.735Z,73.45
2019-02-03T11:40:59.661Z,73.64
2019-02-03T11:43:29.651Z,72.17
2019-02-03T11:45:59.890Z,71.87
2019-02-03T11:48:29.674Z,72.25
2019-02-03T11:50:59.355Z,71.83
2019-02-03T11:53:29.562Z,71.46
2019-02-03T11:55:59.360Z,72.76
2019-02-03T11:58:29.146Z,72.65
2019-02-03T12:00:58.926Z,72.95
2019-02-03T12:03:28.949Z,71.67
2019-02-03T12:05:58.628Z,71.73
2019-02-03T12:08:28.331Z,71.62
2019-02-03T12:10:58.155Z,70.90
2019-02-03T12:13:27.905Z,71.04
2019-02-03T12:15:57.690Z,71.79
2019-02-03T12:18:27.572Z,72.00
2019-02-03T12:20:57.639Z,72.20
2019-02-03T12:23:27.273Z,72.51
2019-02-03T12:25:57.050Z,71.96
2019-02-03T12:28:26.745Z,71.66
2019-02-03T12:30:56.558Z,71.86
2019-02-03T12:33:28.564Z,71.41
2019-02-03T12:35:57.767Z,71.81
2019-02-03T12:38:27.440Z,71.13
2019-02-03T12:40:57.257Z,71.71
2019-02-03T12:43:26.933Z,70.75
2019-02-03T12:45:56.650Z,70.44
2019-02-03T12:48:26.457Z,69.79
2019-02-03T12:50:56.512Z,69.56
2019-02-03T12:53:26.303Z,69.20
2019-02-03T12:55:55.974Z,66.87
2019-02-03T12:58:25.720Z,67.46
2019-02-03T13:00:55.534Z,66.41
2019-02-03T13:03:25.456Z,68.15
2019-02-03T13:05:55.338Z,67.03
2019-02-03T13:08:25.267Z,67.00
2019-02-03T13:10:54.923Z,66.73
2019-02-03T13:13:24.695Z,67.11
2019-02-03T13:15:54.699Z,67.40
2019-02-03T13:18:24.330Z,67.40
2019-02-03T13:20:54.362Z,67.40
2019-02-03T13:23:24.023Z,67.41
2019-02-03T13:25:54.048Z,67.78
2019-02-03T13:28:23.723Z,68.08
2019-02-03T13:30:53.909Z,67.70
2019-02-03T13:33:23.682Z,67.61
2019-02-03T13:35:54.043Z,67.81
2019-02-03T13:38:23.674Z,67.90
2019-02-03T13:40:53.522Z,67.50
2019-02-03T13:43:24.168Z,67.75
2019-02-03T13:45:54.005Z,68.31
2019-02-03T13:48:23.802Z,67.88
2019-02-03T13:50:54.869Z,68.75
2019-02-03T13:53:24.667Z,69.28
2019-02-03T13:55:54.806Z,69.63
2019-02-03T13:58:36.162Z,69.13
2019-02-03T14:00:56.123Z,69.38
2019-02-03T14:03:25.957Z,68.42
2019-02-03T14:05:55.763Z,68.43
2019-02-03T14:08:25.944Z,69.20
2019-02-03T14:10:55.777Z,70.04
2019-02-03T14:13:25.612Z,67.83
2019-02-03T14:15:55.497Z,70.72
2019-02-03T14:18:25.219Z,70.59
2019-02-03T14:20:55.067Z,68.00
2019-02-03T14:23:24.776Z,67.41
2019-02-03T14:25:54.687Z,65.60
2019-02-03T14:28:24.415Z,65.36
2019-02-03T14:30:54.113Z,66.33
2019-02-03T14:33:23.930Z,65.99
2019-02-03T14:35:53.729Z,65.85
2019-02-03T14:38:23.454Z,65.60
2019-02-03T14:40:53.193Z,63.56
2019-02-03T14:43:22.905Z,62.78
2019-02-03T14:45:52.600Z,63.43
2019-02-03T14:48:22.748Z,64.06
2019-02-03T14:50:52.430Z,65.18
2019-02-03T14:53:22.205Z,64.80
2019-02-03T14:55:52.171Z,65.02
2019-02-03T14:58:22.410Z,65.73
2019-02-03T15:00:52.764Z,67.14
2019-02-03T15:03:22.748Z,68.02
2019-02-03T15:05:53.052Z,66.27
2019-02-03T15:08:23.084Z,65.66
2019-02-03T15:10:52.987Z,63.37
2019-02-03T15:13:22.734Z,62.64
2019-02-03T15:15:52.624Z,62.55
2019-02-03T15:18:22.435Z,61.94
2019-02-03T15:20:52.290Z,62.60
2019-02-03T15:23:21.995Z,62.30
2019-02-03T15:25:51.844Z,62.26
2019-02-03T15:28:21.558Z,62.01
2019-02-03T15:30:51.311Z,62.46
2019-02-03T15:33:21.121Z,62.12
2019-02-03T15:35:51.393Z,61.94
2019-02-03T15:38:21.240Z,62.44
2019-02-03T15:40:51.117Z,63.40
2019-02-03T15:43:25.607Z,64.41
2019-02-03T15:45:52.540Z,63.81
2019-02-03T15:48:22.268Z,65.19
2019-02-03T15:50:52.001Z,65.42
2019-02-03T15:53:21.849Z,65.02
2019-02-03T15:55:51.565Z,67.07
2019-02-03T15:58:21.525Z,66.54
2019-02-03T16:00:53.708Z,65.84
2019-02-03T16:03:23.573Z,64.64
2019-02-03T16:05:53.799Z,63.98
2019-02-03T16:08:23.488Z,64.19
2019-02-03T16:10:53.205Z,64.42
2019-02-03T16:13:23.177Z,64.87
2019-02-03T16:15:52.892Z,65.25
2019-02-03T16:18:22.843Z,66.22
2019-02-03T16:20:52.635Z,66.54
2019-02-03T16:23:22.344Z,67.45
2019-02-03T16:25:52.166Z,67.69
2019-02-03T16:28:21.907Z,69.74
2019-02-03T16:30:51.800Z,69.99
2019-02-03T16:33:21.549Z,69.51
2019-02-03T16:35:51.559Z,68.65
2019-02-03T16:38:23.286Z,69.31
2019-02-03T16:40:52.993Z,68.35
2019-02-03T16:43:22.635Z,68.78
2019-02-03T16:45:52.510Z,69.31
2019-02-03T16:48:22.613Z,69.95
2019-02-03T16:50:52.385Z,70.51
2019-02-03T16:53:22.182Z,70.78
2019-02-03T16:55:52.058Z,71.21
2019-02-03T16:58:21.895Z,71.26
2019-02-03T17:00:51.750Z,71.24
2019-02-03T17:03:21.457Z,71.34
2019-02-03T17:05:51.194Z,71.74
2019-02-03T17:08:20.910Z,71.98
2019-02-03T17:10:50.658Z,72.19
2019-02-03T17:13:20.553Z,72.21
2019-02-03T17:15:56.106Z,72.69
2019-02-03T17:18:26.025Z,72.95
2019-02-03T17:21:02.078Z,72.94
2019-02-03T17:23:27.500Z,73.03
2019-02-03T17:26:03.983Z,73.13
2019-02-03T17:28:33.739Z,73.42
2019-02-03T17:31:03.753Z,73.69
2019-02-03T17:33:36.661Z,73.93
2019-02-03T17:36:06.251Z,74.12
2019-02-03T17:38:36.247Z,74.34
2019-02-03T17:41:06.478Z,74.17
2019-02-03T17:43:38.277Z,74.36
2019-02-03T17:46:09.185Z,74.67
2019-02-03T17:48:39.742Z,74.87
2019-02-03T17:51:10.066Z,74.83
2019-02-03T17:53:39.752Z,74.92
2019-02-03T17:56:09.597Z,75.24
2019-02-03T17:58:39.278Z,75.46
2019-02-03T18:01:09.573Z,75.50
2019-02-03T18:03:39.365Z,75.60
2019-02-03T18:06:09.180Z,75.75
2019-02-03T18:08:38.863Z,75.76
2019-02-03T18:11:08.654Z,75.37
2019-02-03T18:13:38.526Z,75.71
2019-02-03T18:16:08.426Z,75.97
2019-02-03T18:18:38.258Z,76.00
2019-02-03T18:21:08.066Z,76.23
2019-02-03T18:23:37.986Z,76.44
2019-02-03T18:26:07.972Z,76.69
2019-02-03T18:28:37.789Z,76.76
2019-02-03T18:31:08.213Z,77.00
2019-02-03T18:33:37.936Z,77.19
2019-02-03T18:36:07.700Z,77.26
2019-02-03T18:38:37.507Z,77.63
2019-02-03T18:41:07.786Z,77.54
2019-02-03T18:43:37.467Z,77.77
2019-02-03T18:46:07.447Z,77.93
2019-02-03T18:48:37.165Z,78.18
2019-02-03T18:51:07.211Z,78.28
2019-02-03T18:53:36.952Z,78.39
2019-02-03T18:56:06.997Z,78.27
2019-02-03T18:58:36.955Z,78.61
2019-02-03T19:01:07.249Z,78.71
2019-02-03T19:03:36.993Z,78.81
2019-02-03T19:06:06.995Z,78.77
2019-02-03T19:08:36.769Z,78.59
2019-02-03T19:11:07.173Z,78.65
2019-02-03T19:13:36.933Z,78.81
2019-02-03T19:16:07.513Z,79.04
2019-02-03T19:18:37.446Z,79.05
2019-02-03T19:21:07.269Z,79.16
2019-02-03T19:23:37.007Z,79.23
2019-02-03T19:26:07.164Z,79.32
2019-02-03T19:28:36.930Z,79.47
2019-02-03T19:31:06.908Z,79.55
2019-02-03T19:33:36.687Z,79.48
2019-02-03T19:36:06.873Z,79.64
2019-02-03T19:38:36.915Z,79.53
2019-02-03T19:41:06.796Z,79.77
2019-02-03T19:43:36.526Z,80.05
2019-02-03T19:46:06.715Z,80.21
2019-02-03T19:48:36.390Z,80.29
2019-02-03T19:51:06.329Z,80.41
2019-02-03T19:53:36.061Z,80.15
2019-02-03T19:56:06.175Z,80.42
2019-02-03T19:58:35.843Z,80.62
2019-02-03T20:01:05.945Z,80.82
2019-02-03T20:03:35.674Z,80.66
2019-02-03T20:06:06.283Z,80.68
2019-02-03T20:08:36.087Z,80.50
2019-02-03T20:11:06.209Z,80.74
2019-02-03T20:13:36.249Z,80.86
2019-02-03T20:16:06.156Z,80.96
2019-02-03T20:18:36.316Z,80.99
2019-02-03T20:21:06.108Z,80.79
2019-02-03T20:23:35.793Z,80.88
2019-02-03T20:26:05.718Z,80.76
2019-02-03T20:28:35.668Z,80.85
2019-02-03T20:31:05.632Z,81.11
2019-02-03T20:33:35.398Z,81.22
2019-02-03T20:36:06.398Z,81.24
2019-02-03T20:38:36.300Z,81.31
2019-02-03T20:41:06.331Z,81.40
2019-02-03T20:43:36.165Z,81.38
2019-02-03T20:46:06.369Z,81.31
2019-02-03T20:48:36.037Z,81.50
2019-02-03T20:51:06.071Z,81.64
2019-02-03T20:53:36.297Z,81.70
2019-02-03T20:56:06.090Z,81.56
2019-02-03T20:58:35.850Z,81.74
2019-02-03T21:01:07.023Z,81.74
2019-02-03T21:03:36.793Z,81.92
2019-02-03T21:06:06.686Z,81.98
2019-02-03T21:08:36.468Z,82.10
2019-02-03T21:11:06.509Z,82.14
2019-02-03T21:13:37.670Z,81.88
2019-02-03T21:16:07.711Z,82.11
2019-02-03T21:18:37.512Z,82.03
2019-02-03T21:21:07.402Z,82.19
2019-02-03T21:23:38.629Z,82.33
2019-02-03T21:26:16.028Z,82.30
2019-02-03T21:28:42.645Z,82.34
2019-02-03T21:31:11.883Z,82.42
2019-02-03T21:33:41.633Z,82.42
2019-02-03T21:36:11.376Z,82.02
2019-02-03T21:38:41.138Z,82.06
2019-02-03T21:41:10.847Z,81.83
2019-02-03T21:43:40.577Z,82.01
2019-02-03T21:46:10.358Z,82.13
2019-02-03T21:48:40.075Z,82.23
2019-02-03T21:51:09.790Z,82.30
2019-02-03T21:53:39.463Z,82.47
2019-02-03T21:56:09.232Z,82.67
2019-02-03T21:58:38.954Z,82.69
2019-02-03T22:01:08.718Z,82.75
2019-02-03T22:03:38.421Z,82.87
2019-02-03T22:06:08.735Z,82.72
2019-02-03T22:08:38.476Z,82.94
2019-02-03T22:11:08.310Z,82.97
2019-02-03T22:13:37.965Z,83.05
2019-02-03T22:16:09.711Z,82.82
2019-02-03T22:18:39.417Z,82.82
2019-02-03T22:21:09.273Z,82.71
2019-02-03T22:23:38.946Z,83.05
2019-02-03T22:26:08.891Z,83.38
2019-02-03T22:28:38.703Z,83.55
2019-02-03T22:31:09.123Z,83.69
2019-02-03T22:33:38.808Z,83.60
2019-02-03T22:36:08.627Z,83.38
2019-02-03T22:38:39.877Z,83.60
2019-02-03T22:41:09.620Z,83.78
2019-02-03T22:43:39.280Z,83.89
2019-02-03T22:46:09.444Z,83.82
2019-02-03T22:48:39.232Z,83.93
2019-02-03T22:51:08.981Z,84.08
2019-02-03T22:53:38.822Z,84.27
2019-02-03T22:56:08.808Z,84.37
2019-02-03T22:58:38.611Z,84.41
2019-02-03T23:01:11.771Z,84.51
2019-02-03T23:03:43.777Z,84.49
2019-02-03T23:06:13.648Z,84.59
2019-02-03T23:08:43.469Z,84.75
2019-02-03T23:11:14.761Z,84.85
2019-02-03T23:13:44.668Z,84.84
2019-02-03T23:16:18.393Z,84.79
2019-02-03T23:18:45.911Z,84.93
2019-02-03T23:21:15.668Z,85.14
2019-02-03T23:23:45.417Z,85.15
2019-02-03T23:26:15.164Z,85.32
2019-02-03T23:28:44.865Z,85.47
2019-02-03T23:31:14.994Z,85.26
2019-02-03T23:33:44.777Z,85.37
2019-02-03T23:36:14.697Z,85.54
2019-02-03T23:38:44.620Z,85.42
2019-02-03T23:41:14.394Z,84.74
2019-02-03T23:43:44.050Z,84.57
2019-02-03T23:46:14.080Z,84.52
2019-02-03T23:48:43.756Z,84.41
2019-02-03T23:51:13.645Z,84.40
2019-02-03T23:53:43.539Z,84.07
2019-02-03T23:56:13.236Z,84.08
2019-02-03T23:58:43.024Z,84.05
